sensor_id;sensor_type;location;lat;lon;timestamp;pressure;altitude;pressure_sealevel;temperature;humidity
18504;BME280;9381;54.244;10.074;2022-12-29T00:04:34;99384.91;;;9.25;100.00
18504;BME280;9381;54.244;10.074;2022-12-29T00:09:34;99371.59;;;9.35;100.00
18504;BME280;9381;54.244;10.074;2022-12-29T00:14:35;99353.97;;;9.44;100.00
18504;BME280;9381;54.244;10.074;2022-12-29T00:19:54;99372.97;;;9.49;100.00
18504;BME280;9381;54.244;10.074;2022-12-29T00:25:13;99354.44;;;9.41;100.00
18504;BME280;9381;54.244;10.074;2022-12-29T00:30:32;99347.59;;;9.50;100.00
18504;BME280;9381;54.244;10.074;2022-12-29T00:35:56;99338.66;;;9.77;100.00
18504;BME280;9381;54.244;10.074;2022-12-29T00:40:58;99348.34;;;9.62;100.00
18504;BME280;9381;54.244;10.074;2022-12-29T00:46:17;99343.38;;;9.70;100.00
18504;BME280;9381;54.244;10.074;2022-12-29T00:51:17;99338.00;;;9.70;100.00
18504;BME280;9381;54.244;10.074;2022-12-29T00:56:18;99336.84;;;9.83;100.00
18504;BME280;9381;54.244;10.074;2022-12-29T01:01:18;99329.81;;;9.82;100.00
18504;BME280;9381;54.244;10.074;2022-12-29T01:06:18;99319.19;;;9.92;100.00
18504;BME280;9381;54.244;10.074;2022-12-29T01:11:19;99325.44;;;9.81;100.00
18504;BME280;9381;54.244;10.074;2022-12-29T01:16:19;99324.06;;;9.95;100.00
18504;BME280;9381;54.244;10.074;2022-12-29T01:21:19;99306.00;;;9.95;100.00
18504;BME280;9381;54.244;10.074;2022-12-29T01:26:20;99306.75;;;10.07;100.00
18504;BME280;9381;54.244;10.074;2022-12-29T01:31:20;99308.75;;;10.17;100.00
18504;BME280;9381;54.244;10.074;2022-12-29T01:36:21;99304.44;;;10.16;100.00
18504;BME280;9381;54.244;10.074;2022-12-29T01:41:22;99303.13;;;10.18;100.00
18504;BME280;9381;54.244;10.074;2022-12-29T01:46:35;99291.00;;;10.21;100.00
18504;BME280;9381;54.244;10.074;2022-12-29T01:52:00;99291.19;;;10.14;100.00
18504;BME280;9381;54.244;10.074;2022-12-29T01:57:07;99270.28;;;10.26;100.00
18504;BME280;9381;54.244;10.074;2022-12-29T02:02:08;99266.75;;;10.26;100.00
18504;BME280;9381;54.244;10.074;2022-12-29T02:07:13;99261.00;;;10.39;100.00
18504;BME280;9381;54.244;10.074;2022-12-29T02:12:14;99263.63;;;10.34;100.00
18504;BME280;9381;54.244;10.074;2022-12-29T02:23:03;99232.03;;;10.34;100.00
18504;BME280;9381;54.244;10.074;2022-12-29T02:44:16;99220.38;;;10.55;100.00
18504;BME280;9381;54.244;10.074;2022-12-29T02:49:33;99225.16;;;10.48;100.00
18504;BME280;9381;54.244;10.074;2022-12-29T02:54:36;99211.47;;;10.55;100.00
18504;BME280;9381;54.244;10.074;2022-12-29T02:59:43;99198.31;;;10.42;100.00
18504;BME280;9381;54.244;10.074;2022-12-29T03:10:30;99196.25;;;10.49;100.00
18504;BME280;9381;54.244;10.074;2022-12-29T03:15:41;99174.66;;;10.54;100.00
18504;BME280;9381;54.244;10.074;2022-12-29T03:21:08;99172.50;;;10.51;100.00
18504;BME280;9381;54.244;10.074;2022-12-29T03:26:11;99171.47;;;10.57;100.00
18504;BME280;9381;54.244;10.074;2022-12-29T03:31:14;99169.34;;;10.59;100.00
18504;BME280;9381;54.244;10.074;2022-12-29T03:36:24;99157.31;;;10.71;100.00
18504;BME280;9381;54.244;10.074;2022-12-29T03:41:30;99151.59;;;10.68;100.00
18504;BME280;9381;54.244;10.074;2022-12-29T03:46:31;99158.09;;;10.72;100.00
18504;BME280;9381;54.244;10.074;2022-12-29T03:51:32;99172.09;;;10.64;100.00
18504;BME280;9381;54.244;10.074;2022-12-29T03:56:32;99154.38;;;10.78;100.00
18504;BME280;9381;54.244;10.074;2022-12-29T04:01:32;99129.13;;;10.94;100.00
18504;BME280;9381;54.244;10.074;2022-12-29T04:06:32;99133.84;;;10.77;100.00
18504;BME280;9381;54.244;10.074;2022-12-29T04:11:33;99121.03;;;10.99;100.00
18504;BME280;9381;54.244;10.074;2022-12-29T04:16:33;99117.78;;;10.97;100.00
18504;BME280;9381;54.244;10.074;2022-12-29T04:21:35;99122.16;;;11.03;100.00
18504;BME280;9381;54.244;10.074;2022-12-29T04:26:36;99095.91;;;11.03;100.00
18504;BME280;9381;54.244;10.074;2022-12-29T04:31:36;99105.34;;;10.96;100.00
18504;BME280;9381;54.244;10.074;2022-12-29T04:36:36;99100.00;;;11.06;100.00
18504;BME280;9381;54.244;10.074;2022-12-29T04:41:36;99091.34;;;11.04;100.00
18504;BME280;9381;54.244;10.074;2022-12-29T04:46:37;99090.22;;;11.00;100.00
18504;BME280;9381;54.244;10.074;2022-12-29T04:51:37;99073.19;;;10.99;100.00
18504;BME280;9381;54.244;10.074;2022-12-29T04:56:37;99067.31;;;11.12;100.00
18504;BME280;9381;54.244;10.074;2022-12-29T05:01:38;99067.00;;;11.04;100.00
18504;BME280;9381;54.244;10.074;2022-12-29T05:06:38;99067.06;;;11.14;100.00
18504;BME280;9381;54.244;10.074;2022-12-29T05:11:38;99071.69;;;11.18;100.00
18504;BME280;9381;54.244;10.074;2022-12-29T05:16:38;99065.19;;;11.14;100.00
18504;BME280;9381;54.244;10.074;2022-12-29T05:21:39;99063.38;;;11.30;100.00
18504;BME280;9381;54.244;10.074;2022-12-29T05:26:39;99052.53;;;11.25;100.00
18504;BME280;9381;54.244;10.074;2022-12-29T05:31:39;99059.84;;;11.29;100.00
18504;BME280;9381;54.244;10.074;2022-12-29T05:36:39;99056.47;;;11.07;100.00
18504;BME280;9381;54.244;10.074;2022-12-29T05:41:40;99056.47;;;11.07;100.00
18504;BME280;9381;54.244;10.074;2022-12-29T05:46:40;99053.22;;;11.05;100.00
18504;BME280;9381;54.244;10.074;2022-12-29T05:51:40;99059.44;;;11.06;100.00
18504;BME280;9381;54.244;10.074;2022-12-29T05:56:41;99060.50;;;11.05;100.00
18504;BME280;9381;54.244;10.074;2022-12-29T06:01:41;99061.09;;;11.12;100.00
18504;BME280;9381;54.244;10.074;2022-12-29T06:06:41;99071.31;;;11.05;100.00
18504;BME280;9381;54.244;10.074;2022-12-29T06:11:42;99081.53;;;10.93;100.00
18504;BME280;9381;54.244;10.074;2022-12-29T06:16:43;99080.28;;;11.05;100.00
18504;BME280;9381;54.244;10.074;2022-12-29T06:21:43;99075.59;;;10.96;100.00
18504;BME280;9381;54.244;10.074;2022-12-29T06:26:43;99081.75;;;10.91;100.00
18504;BME280;9381;54.244;10.074;2022-12-29T06:31:44;99067.47;;;10.96;100.00
18504;BME280;9381;54.244;10.074;2022-12-29T06:36:48;99078.41;;;11.11;100.00
18504;BME280;9381;54.244;10.074;2022-12-29T06:41:52;99088.63;;;11.04;100.00
18504;BME280;9381;54.244;10.074;2022-12-29T06:46:52;99078.72;;;11.14;100.00
18504;BME280;9381;54.244;10.074;2022-12-29T06:51:52;99073.56;;;11.18;100.00
18504;BME280;9381;54.244;10.074;2022-12-29T06:56:53;99068.50;;;11.26;100.00
18504;BME280;9381;54.244;10.074;2022-12-29T07:01:54;99069.84;;;11.24;100.00
18504;BME280;9381;54.244;10.074;2022-12-29T07:06:55;99061.59;;;11.09;100.00
18504;BME280;9381;54.244;10.074;2022-12-29T07:11:55;99058.41;;;11.17;100.00
18504;BME280;9381;54.244;10.074;2022-12-29T07:16:55;99065.97;;;11.15;100.00
18504;BME280;9381;54.244;10.074;2022-12-29T07:21:56;99074.03;;;11.05;100.00
18504;BME280;9381;54.244;10.074;2022-12-29T07:26:56;99082.19;;;11.10;100.00
18504;BME280;9381;54.244;10.074;2022-12-29T07:31:56;99072.28;;;11.25;100.00
18504;BME280;9381;54.244;10.074;2022-12-29T07:36:57;99093.03;;;11.15;100.00
18504;BME280;9381;54.244;10.074;2022-12-29T07:41:57;99111.97;;;11.10;100.00
18504;BME280;9381;54.244;10.074;2022-12-29T07:46:57;99121.72;;;11.16;100.00
18504;BME280;9381;54.244;10.074;2022-12-29T07:51:58;99131.31;;;11.28;100.00
18504;BME280;9381;54.244;10.074;2022-12-29T07:56:58;99134.78;;;11.24;100.00
18504;BME280;9381;54.244;10.074;2022-12-29T08:02:00;99139.59;;;11.17;100.00
18504;BME280;9381;54.244;10.074;2022-12-29T08:07:01;99136.72;;;11.28;100.00
18504;BME280;9381;54.244;10.074;2022-12-29T08:12:01;99137.97;;;11.16;100.00
18504;BME280;9381;54.244;10.074;2022-12-29T08:17:01;99144.88;;;11.33;100.00
18504;BME280;9381;54.244;10.074;2022-12-29T08:22:02;99147.91;;;11.42;100.00
18504;BME280;9381;54.244;10.074;2022-12-29T08:27:02;99157.59;;;11.33;100.00
18504;BME280;9381;54.244;10.074;2022-12-29T08:32:03;99153.47;;;11.25;100.00
18504;BME280;9381;54.244;10.074;2022-12-29T08:37:03;99162.41;;;11.26;100.00
18504;BME280;9381;54.244;10.074;2022-12-29T08:42:04;99150.59;;;11.37;100.00
18504;BME280;9381;54.244;10.074;2022-12-29T08:47:04;99152.72;;;11.35;100.00
18504;BME280;9381;54.244;10.074;2022-12-29T08:52:05;99146.94;;;11.21;100.00
18504;BME280;9381;54.244;10.074;2022-12-29T08:57:05;99148.38;;;11.29;100.00
18504;BME280;9381;54.244;10.074;2022-12-29T09:02:05;99155.91;;;11.27;100.00
18504;BME280;9381;54.244;10.074;2022-12-29T09:07:06;99163.53;;;11.35;100.00
18504;BME280;9381;54.244;10.074;2022-12-29T09:12:06;99154.81;;;11.23;100.00
18504;BME280;9381;54.244;10.074;2022-12-29T09:17:06;99158.53;;;11.17;100.00
18504;BME280;9381;54.244;10.074;2022-12-29T09:22:25;99170.44;;;11.16;100.00
18504;BME280;9381;54.244;10.074;2022-12-29T09:27:26;99185.88;;;11.15;100.00
18504;BME280;9381;54.244;10.074;2022-12-29T09:32:26;99196.47;;;11.22;100.00
18504;BME280;9381;54.244;10.074;2022-12-29T09:37:27;99187.28;;;11.23;100.00
18504;BME280;9381;54.244;10.074;2022-12-29T09:42:52;99188.91;;;11.24;100.00
18504;BME280;9381;54.244;10.074;2022-12-29T09:47:55;99191.16;;;11.32;100.00
18504;BME280;9381;54.244;10.074;2022-12-29T09:58:02;99195.09;;;11.51;97.78
18504;BME280;9381;54.244;10.074;2022-12-29T10:03:20;99203.66;;;11.38;96.21
18504;BME280;9381;54.244;10.074;2022-12-29T10:24:18;99174.84;;;11.58;92.93
18504;BME280;9381;54.244;10.074;2022-12-29T10:29:28;99169.63;;;11.52;92.73
18504;BME280;9381;54.244;10.074;2022-12-29T10:34:43;99180.84;;;11.60;93.00
18504;BME280;9381;54.244;10.074;2022-12-29T10:39:51;99181.53;;;11.51;93.91
18504;BME280;9381;54.244;10.074;2022-12-29T10:44:56;99222.72;;;11.52;95.47
18504;BME280;9381;54.244;10.074;2022-12-29T10:49:57;99192.84;;;11.43;97.42
18504;BME280;9381;54.244;10.074;2022-12-29T10:55:07;99173.94;;;11.48;98.40
18504;BME280;9381;54.244;10.074;2022-12-29T11:00:20;99181.59;;;11.56;97.61
18504;BME280;9381;54.244;10.074;2022-12-29T11:05:29;99170.47;;;11.52;97.44
18504;BME280;9381;54.244;10.074;2022-12-29T11:15:47;99172.75;;;11.34;98.59
18504;BME280;9381;54.244;10.074;2022-12-29T11:20:51;99176.53;;;11.33;99.74
18504;BME280;9381;54.244;10.074;2022-12-29T11:26:11;99175.34;;;11.19;100.00
18504;BME280;9381;54.244;10.074;2022-12-29T11:31:16;99198.22;;;11.06;100.00
18504;BME280;9381;54.244;10.074;2022-12-29T11:36:21;99176.78;;;11.00;100.00
18504;BME280;9381;54.244;10.074;2022-12-29T11:41:25;99159.59;;;11.16;100.00
18504;BME280;9381;54.244;10.074;2022-12-29T11:46:28;99178.53;;;11.11;100.00
18504;BME280;9381;54.244;10.074;2022-12-29T11:51:43;99180.16;;;11.12;100.00
18504;BME280;9381;54.244;10.074;2022-12-29T11:56:46;99176.78;;;11.00;100.00
18504;BME280;9381;54.244;10.074;2022-12-29T12:01:47;99175.38;;;11.24;100.00
18504;BME280;9381;54.244;10.074;2022-12-29T12:07:00;99181.31;;;11.21;100.00
18504;BME280;9381;54.244;10.074;2022-12-29T12:12:03;99183.78;;;10.96;100.00
18504;BME280;9381;54.244;10.074;2022-12-29T12:17:16;99173.91;;;11.11;100.00
18504;BME280;9381;54.244;10.074;2022-12-29T12:22:37;99164.53;;;11.24;100.00
18504;BME280;9381;54.244;10.074;2022-12-29T12:27:45;99167.13;;;11.09;100.00
18504;BME280;9381;54.244;10.074;2022-12-29T12:38:19;99176.56;;;10.53;100.00
18504;BME280;9381;54.244;10.074;2022-12-29T12:43:44;99197.88;;;10.50;100.00
18504;BME280;9381;54.244;10.074;2022-12-29T12:48:59;99189.69;;;10.45;100.00
18504;BME280;9381;54.244;10.074;2022-12-29T12:54:31;99201.22;;;10.35;100.00
18504;BME280;9381;54.244;10.074;2022-12-29T12:59:51;99212.09;;;10.19;100.00
18504;BME280;9381;54.244;10.074;2022-12-29T13:05:21;99212.53;;;10.11;100.00
18504;BME280;9381;54.244;10.074;2022-12-29T13:10:42;99228.19;;;10.09;100.00
18504;BME280;9381;54.244;10.074;2022-12-29T13:21:25;99236.84;;;10.11;100.00
18504;BME280;9381;54.244;10.074;2022-12-29T13:26:52;99239.69;;;9.88;100.00
18504;BME280;9381;54.244;10.074;2022-12-29T13:37:20;99283.50;;;10.06;100.00
18504;BME280;9381;54.244;10.074;2022-12-29T13:42:25;99304.09;;;9.96;100.00
18504;BME280;9381;54.244;10.074;2022-12-29T13:47:38;99314.09;;;9.79;100.00
18504;BME280;9381;54.244;10.074;2022-12-29T13:58:08;99306.09;;;9.84;100.00
18504;BME280;9381;54.244;10.074;2022-12-29T14:03:27;99313.44;;;9.88;100.00
18504;BME280;9381;54.244;10.074;2022-12-29T14:08:34;99327.84;;;9.94;100.00
18504;BME280;9381;54.244;10.074;2022-12-29T14:13:38;99330.28;;;9.79;100.00
18504;BME280;9381;54.244;10.074;2022-12-29T14:18:43;99349.69;;;9.76;100.00
18504;BME280;9381;54.244;10.074;2022-12-29T14:23:49;99357.94;;;9.86;100.00
18504;BME280;9381;54.244;10.074;2022-12-29T14:28:50;99368.41;;;9.82;100.00
18504;BME280;9381;54.244;10.074;2022-12-29T14:39:31;99394.91;;;9.85;100.00
18504;BME280;9381;54.244;10.074;2022-12-29T14:44:33;99403.22;;;9.95;100.00
18504;BME280;9381;54.244;10.074;2022-12-29T14:49:42;99406.78;;;9.84;100.00
18504;BME280;9381;54.244;10.074;2022-12-29T14:54:53;99418.59;;;9.95;100.00
18504;BME280;9381;54.244;10.074;2022-12-29T14:59:59;99420.69;;;10.04;100.00
18504;BME280;9381;54.244;10.074;2022-12-29T15:05:02;99432.78;;;10.02;100.00
18504;BME280;9381;54.244;10.074;2022-12-29T15:10:13;99431.34;;;10.11;100.00
18504;BME280;9381;54.244;10.074;2022-12-29T15:15:24;99439.34;;;10.06;100.00
18504;BME280;9381;54.244;10.074;2022-12-29T15:20:30;99451.13;;;10.00;100.00
18504;BME280;9381;54.244;10.074;2022-12-29T15:25:31;99466.25;;;10.01;100.00
18504;BME280;9381;54.244;10.074;2022-12-29T15:30:32;99471.56;;;9.96;100.00
18504;BME280;9381;54.244;10.074;2022-12-29T15:35:35;99489.06;;;9.93;100.00
18504;BME280;9381;54.244;10.074;2022-12-29T15:40:36;99498.22;;;9.92;100.00
18504;BME280;9381;54.244;10.074;2022-12-29T15:45:37;99505.97;;;9.89;100.00
18504;BME280;9381;54.244;10.074;2022-12-29T15:50:37;99518.03;;;9.98;100.00
18504;BME280;9381;54.244;10.074;2022-12-29T15:55:41;99509.06;;;9.81;100.00
18504;BME280;9381;54.244;10.074;2022-12-29T16:00:47;99529.81;;;9.92;100.00
18504;BME280;9381;54.244;10.074;2022-12-29T16:06:08;99521.78;;;9.69;100.00
18504;BME280;9381;54.244;10.074;2022-12-29T16:11:32;99539.78;;;9.63;100.00
18504;BME280;9381;54.244;10.074;2022-12-29T16:16:39;99556.34;;;9.55;100.00
18504;BME280;9381;54.244;10.074;2022-12-29T16:21:41;99545.41;;;9.62;100.00
18504;BME280;9381;54.244;10.074;2022-12-29T16:26:59;99554.19;;;9.69;100.00
18504;BME280;9381;54.244;10.074;2022-12-29T16:32:02;99565.63;;;9.48;100.00
18504;BME280;9381;54.244;10.074;2022-12-29T16:37:33;99563.28;;;9.40;100.00
18504;BME280;9381;54.244;10.074;2022-12-29T16:47:43;99572.81;;;9.19;100.00
18504;BME280;9381;54.244;10.074;2022-12-29T16:52:48;99580.88;;;9.08;100.00
18504;BME280;9381;54.244;10.074;2022-12-29T16:57:51;99575.63;;;9.01;100.00
18504;BME280;9381;54.244;10.074;2022-12-29T17:02:57;99582.06;;;8.89;100.00
18504;BME280;9381;54.244;10.074;2022-12-29T17:07:58;99594.97;;;8.87;100.00
18504;BME280;9381;54.244;10.074;2022-12-29T17:13:01;99616.78;;;8.85;100.00
18504;BME280;9381;54.244;10.074;2022-12-29T17:18:01;99615.47;;;8.88;100.00
18504;BME280;9381;54.244;10.074;2022-12-29T17:23:13;99620.28;;;8.86;100.00
18504;BME280;9381;54.244;10.074;2022-12-29T17:28:24;99633.53;;;8.87;100.00
18504;BME280;9381;54.244;10.074;2022-12-29T17:33:27;99630.25;;;8.97;100.00
18504;BME280;9381;54.244;10.074;2022-12-29T17:38:39;99622.31;;;9.02;100.00
18504;BME280;9381;54.244;10.074;2022-12-29T17:43:39;99619.72;;;9.07;100.00
18504;BME280;9381;54.244;10.074;2022-12-29T17:48:40;99626.06;;;9.01;100.00
18504;BME280;9381;54.244;10.074;2022-12-29T17:53:40;99621.63;;;9.18;100.00
18504;BME280;9381;54.244;10.074;2022-12-29T17:58:40;99625.00;;;9.02;100.00
18504;BME280;9381;54.244;10.074;2022-12-29T18:03:41;99631.81;;;9.04;100.00
18504;BME280;9381;54.244;10.074;2022-12-29T18:08:41;99650.09;;;9.14;100.00
18504;BME280;9381;54.244;10.074;2022-12-29T18:13:43;99646.22;;;9.21;100.00
18504;BME280;9381;54.244;10.074;2022-12-29T18:18:44;99642.38;;;9.29;100.00
18504;BME280;9381;54.244;10.074;2022-12-29T18:23:44;99634.84;;;9.31;100.00
18504;BME280;9381;54.244;10.074;2022-12-29T18:28:45;99637.19;;;9.16;100.00
18504;BME280;9381;54.244;10.074;2022-12-29T18:33:49;99654.31;;;9.10;100.00
18504;BME280;9381;54.244;10.074;2022-12-29T18:38:50;99646.81;;;9.12;100.00
18504;BME280;9381;54.244;10.074;2022-12-29T18:43:52;99651.06;;;9.31;100.00
18504;BME280;9381;54.244;10.074;2022-12-29T18:48:53;99644.59;;;9.20;100.00
18504;BME280;9381;54.244;10.074;2022-12-29T18:53:53;99647.78;;;9.29;100.00
18504;BME280;9381;54.244;10.074;2022-12-29T18:58:53;99661.97;;;9.24;100.00
18504;BME280;9381;54.244;10.074;2022-12-29T19:03:55;99652.44;;;9.22;100.00
18504;BME280;9381;54.244;10.074;2022-12-29T19:08:56;99644.00;;;9.30;100.00
18504;BME280;9381;54.244;10.074;2022-12-29T19:13:56;99648.22;;;9.26;100.00
18504;BME280;9381;54.244;10.074;2022-12-29T19:18:56;99638.50;;;9.13;100.00
18504;BME280;9381;54.244;10.074;2022-12-29T19:23:58;99637.66;;;9.13;100.00
18504;BME280;9381;54.244;10.074;2022-12-29T19:28:59;99633.91;;;9.14;100.00
18504;BME280;9381;54.244;10.074;2022-12-29T19:34:00;99639.06;;;9.04;100.00
18504;BME280;9381;54.244;10.074;2022-12-29T19:39:02;99629.00;;;9.11;100.00
18504;BME280;9381;54.244;10.074;2022-12-29T19:44:02;99637.44;;;9.26;100.00
18504;BME280;9381;54.244;10.074;2022-12-29T19:49:03;99627.81;;;9.07;100.00
18504;BME280;9381;54.244;10.074;2022-12-29T19:54:03;99637.44;;;9.03;100.00
18504;BME280;9381;54.244;10.074;2022-12-29T19:59:03;99652.06;;;9.07;100.00
18504;BME280;9381;54.244;10.074;2022-12-29T20:04:04;99658.09;;;9.09;100.00
18504;BME280;9381;54.244;10.074;2022-12-29T20:09:04;99656.94;;;9.28;100.00
18504;BME280;9381;54.244;10.074;2022-12-29T20:14:05;99659.81;;;9.15;100.00
18504;BME280;9381;54.244;10.074;2022-12-29T20:19:05;99669.56;;;9.16;100.00
18504;BME280;9381;54.244;10.074;2022-12-29T20:24:06;99670.63;;;9.15;100.00
18504;BME280;9381;54.244;10.074;2022-12-29T20:29:07;99676.34;;;9.07;100.00
18504;BME280;9381;54.244;10.074;2022-12-29T20:34:07;99676.81;;;9.04;100.00
18504;BME280;9381;54.244;10.074;2022-12-29T20:39:13;99687.34;;;8.94;100.00
18504;BME280;9381;54.244;10.074;2022-12-29T20:44:14;99681.75;;;8.95;100.00
18504;BME280;9381;54.244;10.074;2022-12-29T20:49:14;99671.66;;;8.91;100.00
18504;BME280;9381;54.244;10.074;2022-12-29T20:54:15;99668.94;;;9.02;100.00
18504;BME280;9381;54.244;10.074;2022-12-29T20:59:15;99689.47;;;8.92;100.00
18504;BME280;9381;54.244;10.074;2022-12-29T21:04:17;99692.75;;;8.94;100.00
18504;BME280;9381;54.244;10.074;2022-12-29T21:09:17;99697.16;;;8.77;100.00
18504;BME280;9381;54.244;10.074;2022-12-29T21:14:19;99704.00;;;8.91;100.00
18504;BME280;9381;54.244;10.074;2022-12-29T21:19:20;99698.22;;;8.76;100.00
18504;BME280;9381;54.244;10.074;2022-12-29T21:24:20;99705.50;;;8.87;100.00
18504;BME280;9381;54.244;10.074;2022-12-29T21:29:21;99710.84;;;8.75;100.00
18504;BME280;9381;54.244;10.074;2022-12-29T21:34:21;99717.28;;;8.74;100.00
18504;BME280;9381;54.244;10.074;2022-12-29T21:39:21;99711.72;;;8.87;100.00
18504;BME280;9381;54.244;10.074;2022-12-29T21:44:22;99716.16;;;8.82;100.00
18504;BME280;9381;54.244;10.074;2022-12-29T21:49:41;99731.03;;;8.73;100.00
18504;BME280;9381;54.244;10.074;2022-12-29T21:54:41;99729.03;;;8.80;100.00
18504;BME280;9381;54.244;10.074;2022-12-29T21:59:59;99750.38;;;8.81;100.00
18504;BME280;9381;54.244;10.074;2022-12-29T22:05:18;99727.88;;;8.76;100.00
18504;BME280;9381;54.244;10.074;2022-12-29T22:10:39;99725.78;;;8.89;100.00
18504;BME280;9381;54.244;10.074;2022-12-29T22:15:58;99728.38;;;8.96;100.00
18504;BME280;9381;54.244;10.074;2022-12-29T22:21:05;99738.00;;;8.92;100.00
18504;BME280;9381;54.244;10.074;2022-12-29T22:26:08;99730.75;;;9.04;100.00
18504;BME280;9381;54.244;10.074;2022-12-29T22:31:20;99750.44;;;8.93;100.00
18504;BME280;9381;54.244;10.074;2022-12-29T22:36:24;99755.34;;;8.96;100.00
18504;BME280;9381;54.244;10.074;2022-12-29T22:41:25;99750.44;;;8.93;100.00
18504;BME280;9381;54.244;10.074;2022-12-29T22:46:25;99752.06;;;8.94;100.00
18504;BME280;9381;54.244;10.074;2022-12-29T22:51:25;99751.38;;;8.98;100.00
18504;BME280;9381;54.244;10.074;2022-12-29T22:56:26;99763.06;;;8.81;100.00
18504;BME280;9381;54.244;10.074;2022-12-29T23:01:26;99755.31;;;8.84;100.00
18504;BME280;9381;54.244;10.074;2022-12-29T23:06:27;99778.13;;;8.70;100.00
18504;BME280;9381;54.244;10.074;2022-12-29T23:11:30;99782.84;;;8.75;100.00
18504;BME280;9381;54.244;10.074;2022-12-29T23:16:30;99785.06;;;8.78;100.00
18504;BME280;9381;54.244;10.074;2022-12-29T23:21:31;99790.16;;;8.68;100.00
18504;BME280;9381;54.244;10.074;2022-12-29T23:26:37;99804.41;;;8.57;100.00
18504;BME280;9381;54.244;10.074;2022-12-29T23:31:38;99796.13;;;8.59;100.00
18504;BME280;9381;54.244;10.074;2022-12-29T23:36:39;99805.78;;;8.48;100.00
18504;BME280;9381;54.244;10.074;2022-12-29T23:41:39;99815.78;;;8.41;100.00
18504;BME280;9381;54.244;10.074;2022-12-29T23:46:40;99817.00;;;8.45;100.00
18504;BME280;9381;54.244;10.074;2022-12-29T23:51:40;99824.47;;;8.43;100.00
18504;BME280;9381;54.244;10.074;2022-12-29T23:56:40;99840.50;;;8.38;100.00
